createdAt,value
2022-09-24T00:01:16.712Z,12.11
2022-09-24T00:03:48.469Z,12.20
2022-09-24T00:06:19.218Z,12.04
2022-09-24T00:08:49.764Z,12.18
2022-09-24T00:11:22.257Z,11.97
2022-09-24T00:13:52.862Z,12.12
2022-09-24T00:16:25.873Z,12.01
2022-09-24T00:18:55.782Z,11.93
2022-09-24T00:21:27.773Z,12.14
2022-09-24T00:23:59.089Z,12.18
2022-09-24T00:26:43.828Z,11.91
2022-09-24T00:29:15.443Z,11.73
2022-09-24T00:31:45.369Z,11.77
2022-09-24T00:34:15.056Z,11.72
2022-09-24T00:36:46.973Z,11.99
2022-09-24T00:39:17.050Z,12.18
2022-09-24T00:41:49.987Z,12.06
2022-09-24T00:44:50.972Z,11.95
2022-09-24T00:47:36.526Z,12.21
2022-09-24T00:50:16.067Z,11.96
2022-09-24T00:52:50.235Z,11.72
2022-09-24T00:55:21.519Z,11.77
2022-09-24T00:57:56.357Z,11.70
2022-09-24T01:00:26.833Z,11.57
2022-09-24T01:03:02.702Z,11.62
2022-09-24T01:05:32.940Z,11.76
2022-09-24T01:08:02.621Z,11.43
2022-09-24T01:10:51.814Z,11.72
2022-09-24T01:13:43.381Z,11.89
2022-09-24T01:16:22.781Z,11.94
2022-09-24T01:18:58.172Z,11.92
2022-09-24T01:21:35.179Z,12.00
2022-09-24T01:24:24.462Z,11.88
2022-09-24T01:27:10.726Z,11.81
2022-09-24T01:30:01.694Z,11.89
2022-09-24T01:32:37.598Z,11.70
2022-09-24T01:35:15.873Z,11.55
2022-09-24T01:37:52.187Z,11.69
2022-09-24T01:40:24.893Z,11.79
2022-09-24T01:42:56.266Z,11.77
2022-09-24T01:45:32.191Z,11.72
2022-09-24T01:48:03.621Z,11.73
2022-09-24T01:50:37.756Z,11.61
2022-09-24T01:53:12.172Z,11.54
2022-09-24T01:55:48.299Z,11.50
2022-09-24T01:58:21.718Z,11.60
2022-09-24T02:01:01.199Z,11.74
2022-09-24T02:03:34.664Z,11.76
2022-09-24T02:06:08.186Z,11.73
2022-09-24T02:08:44.325Z,11.48
2022-09-24T02:11:16.108Z,11.37
2022-09-24T02:13:50.263Z,11.10
2022-09-24T02:16:27.649Z,11.30
2022-09-24T02:19:00.867Z,11.27
2022-09-24T02:21:33.742Z,11.44
2022-09-24T02:24:10.171Z,11.43
2022-09-24T02:26:39.866Z,11.44
2022-09-24T02:29:09.764Z,11.41
2022-09-24T02:31:46.102Z,11.15
2022-09-24T02:34:25.830Z,10.90
2022-09-24T02:36:58.095Z,11.08
2022-09-24T02:39:28.199Z,11.26
2022-09-24T02:41:58.541Z,11.36
2022-09-24T02:44:29.277Z,11.23
2022-09-24T02:47:01.616Z,11.37
2022-09-24T02:49:31.915Z,11.36
2022-09-24T02:52:01.854Z,11.26
2022-09-24T02:54:31.625Z,11.34
2022-09-24T02:57:01.256Z,11.35
2022-09-24T02:59:30.908Z,11.32
2022-09-24T03:02:03.338Z,11.07
2022-09-24T03:04:35.920Z,11.00
2022-09-24T03:07:05.790Z,11.09
2022-09-24T03:09:35.479Z,11.03
2022-09-24T03:12:05.585Z,11.17
2022-09-24T03:14:35.230Z,11.12
2022-09-24T03:17:07.532Z,11.19
2022-09-24T03:19:37.300Z,11.04
2022-09-24T03:22:07.063Z,11.04
2022-09-24T03:24:36.763Z,11.13
2022-09-24T03:27:06.753Z,11.22
2022-09-24T03:29:48.873Z,11.31
2022-09-24T03:32:21.634Z,11.19
2022-09-24T03:34:51.280Z,11.20
2022-09-24T03:37:21.092Z,11.31
2022-09-24T03:39:50.737Z,11.25
2022-09-24T03:42:20.362Z,11.04
2022-09-24T03:44:50.014Z,11.19
2022-09-24T03:47:22.255Z,11.22
2022-09-24T03:49:53.520Z,11.11
2022-09-24T03:52:23.267Z,11.12
2022-09-24T03:54:53.584Z,10.99
2022-09-24T03:57:23.245Z,11.09
2022-09-24T03:59:54.171Z,11.14
2022-09-24T04:02:26.457Z,11.15
2022-09-24T04:04:56.135Z,11.32
2022-09-24T04:07:25.798Z,11.32
2022-09-24T04:09:55.452Z,11.29
2022-09-24T04:12:25.184Z,11.29
2022-09-24T04:14:54.844Z,11.39
2022-09-24T04:17:31.445Z,11.14
2022-09-24T04:20:01.213Z,11.20
2022-09-24T04:22:31.092Z,11.24
2022-09-24T04:25:00.780Z,11.23
2022-09-24T04:27:31.298Z,11.30
2022-09-24T04:30:01.102Z,11.04
2022-09-24T04:32:33.330Z,11.25
2022-09-24T04:35:07.408Z,11.32
2022-09-24T04:37:37.697Z,11.37
2022-09-24T04:40:12.755Z,11.46
2022-09-24T04:42:43.352Z,11.43
2022-09-24T04:45:14.667Z,11.31
2022-09-24T04:47:46.977Z,11.37
2022-09-24T04:50:16.820Z,11.43
2022-09-24T04:52:46.744Z,11.48
2022-09-24T04:55:16.811Z,11.42
2022-09-24T04:57:46.422Z,11.17
2022-09-24T05:00:19.729Z,11.10
2022-09-24T05:02:59.015Z,11.23
2022-09-24T05:05:29.372Z,11.36
2022-09-24T05:07:59.266Z,11.46
2022-09-24T05:10:29.650Z,11.19
2022-09-24T05:12:59.237Z,11.43
2022-09-24T05:15:29.229Z,11.44
2022-09-24T05:18:01.752Z,11.41
2022-09-24T05:20:32.215Z,11.40
2022-09-24T05:23:01.856Z,11.44
2022-09-24T05:25:31.560Z,11.47
2022-09-24T05:27:58.638Z,11.31
2022-09-24T05:30:28.347Z,11.20
2022-09-24T05:32:58.244Z,11.40
2022-09-24T05:35:30.451Z,11.31
2022-09-24T05:38:00.098Z,11.37
2022-09-24T05:40:51.021Z,11.42
2022-09-24T05:43:22.317Z,11.32
2022-09-24T05:45:52.818Z,11.14
2022-09-24T05:48:22.446Z,11.26
2022-09-24T05:50:55.668Z,11.33
2022-09-24T05:53:25.823Z,11.25
2022-09-24T05:55:55.677Z,11.29
2022-09-24T05:58:25.383Z,11.31
2022-09-24T06:00:55.077Z,11.34
2022-09-24T06:03:24.907Z,11.37
2022-09-24T06:05:59.745Z,11.48
2022-09-24T06:08:29.485Z,11.31
2022-09-24T06:11:02.606Z,11.39
2022-09-24T06:13:33.821Z,11.37
2022-09-24T06:16:04.338Z,11.42
2022-09-24T06:18:36.428Z,11.47
2022-09-24T06:21:11.528Z,11.44
2022-09-24T06:23:42.567Z,11.51
2022-09-24T06:26:14.946Z,11.56
2022-09-24T06:28:45.053Z,11.51
2022-09-24T06:31:14.985Z,11.70
2022-09-24T06:33:44.678Z,11.69
2022-09-24T06:36:17.125Z,11.68
2022-09-24T06:38:46.820Z,11.82
2022-09-24T06:41:16.548Z,11.81
2022-09-24T06:43:46.224Z,11.89
2022-09-24T06:46:16.209Z,11.88
2022-09-24T06:48:45.818Z,11.91
2022-09-24T06:51:18.223Z,12.03
2022-09-24T06:53:47.931Z,12.07
2022-09-24T06:56:17.848Z,12.13
2022-09-24T06:58:47.558Z,11.99
2022-09-24T07:01:17.415Z,11.87
2022-09-24T07:03:47.226Z,11.87
2022-09-24T07:06:19.665Z,12.00
2022-09-24T07:08:53.827Z,12.11
2022-09-24T07:11:23.713Z,12.12
2022-09-24T07:13:54.965Z,12.22
2022-09-24T07:16:24.786Z,12.24
2022-09-24T07:18:54.459Z,12.13
2022-09-24T07:21:26.829Z,12.11
2022-09-24T07:23:58.750Z,12.22
2022-09-24T07:26:28.619Z,12.27
2022-09-24T07:28:58.389Z,12.32
2022-09-24T07:31:28.176Z,12.35
2022-09-24T07:33:57.985Z,12.38
2022-09-24T07:36:31.238Z,12.46
2022-09-24T07:39:01.425Z,12.50
2022-09-24T07:41:34.076Z,12.48
2022-09-24T07:44:06.249Z,12.61
2022-09-24T07:46:36.003Z,12.62
2022-09-24T07:49:06.240Z,12.67
2022-09-24T07:51:38.628Z,12.68
2022-09-24T07:54:08.662Z,12.68
2022-09-24T07:56:38.307Z,12.65
2022-09-24T07:59:11.342Z,12.72
2022-09-24T08:01:41.108Z,12.80
2022-09-24T08:04:11.172Z,12.69
2022-09-24T08:06:47.414Z,12.75
2022-09-24T08:09:18.567Z,12.83
2022-09-24T08:11:48.491Z,12.87
2022-09-24T08:14:18.400Z,12.98
2022-09-24T08:16:48.108Z,13.02
2022-09-24T08:19:17.788Z,13.03
2022-09-24T08:21:50.452Z,13.05
2022-09-24T08:24:20.122Z,13.10
2022-09-24T08:26:49.761Z,13.05
2022-09-24T08:29:19.552Z,13.13
2022-09-24T08:31:49.321Z,13.27
2022-09-24T08:34:19.069Z,13.29
2022-09-24T08:36:51.282Z,13.39
2022-09-24T08:39:21.162Z,13.35
2022-09-24T08:41:57.296Z,13.48
2022-09-24T08:44:46.087Z,13.55
2022-09-24T08:47:25.977Z,13.79
2022-09-24T08:50:10.259Z,13.95
2022-09-24T08:52:54.437Z,14.17
2022-09-24T08:55:33.040Z,14.35
2022-09-24T08:58:17.781Z,14.70
2022-09-24T09:00:54.531Z,15.02
2022-09-24T09:03:33.273Z,15.42
2022-09-24T09:06:06.860Z,15.32
2022-09-24T09:09:06.235Z,15.42
2022-09-24T09:11:38.487Z,15.86
2022-09-24T09:14:15.449Z,16.10
2022-09-24T09:16:52.256Z,16.55
2022-09-24T09:19:29.264Z,16.52
2022-09-24T09:22:04.119Z,16.34
2022-09-24T09:24:44.787Z,16.58
2022-09-24T09:27:17.057Z,16.64
2022-09-24T09:29:48.769Z,16.57
2022-09-24T09:32:35.137Z,16.73
2022-09-24T09:35:13.633Z,16.88
2022-09-24T09:37:50.010Z,17.01
2022-09-24T09:40:39.164Z,16.94
2022-09-24T09:43:13.995Z,16.72
2022-09-24T09:45:50.627Z,16.64
2022-09-24T09:48:22.474Z,16.47
2022-09-24T09:50:55.126Z,16.54
2022-09-24T09:53:26.557Z,16.51
2022-09-24T09:56:01.352Z,16.47
2022-09-24T09:58:33.807Z,16.64
2022-09-24T10:01:09.911Z,16.59
2022-09-24T10:03:51.110Z,16.47
2022-09-24T10:06:27.541Z,16.50
2022-09-24T10:08:57.666Z,16.54
2022-09-24T10:11:30.039Z,16.50
2022-09-24T10:14:05.525Z,16.29
2022-09-24T10:16:40.883Z,16.15
2022-09-24T10:19:18.884Z,16.31
2022-09-24T10:21:48.735Z,16.28
2022-09-24T10:24:21.507Z,16.41
2022-09-24T10:26:54.677Z,16.33
2022-09-24T10:29:40.435Z,16.34
2022-09-24T10:32:18.231Z,16.39
2022-09-24T10:34:58.593Z,16.35
2022-09-24T10:37:29.363Z,16.28
2022-09-24T10:40:02.662Z,16.28
2022-09-24T10:42:34.884Z,16.32
2022-09-24T10:45:06.165Z,16.36
2022-09-24T10:47:44.144Z,16.27
2022-09-24T10:50:33.904Z,16.30
2022-09-24T10:53:09.745Z,16.30
2022-09-24T10:55:58.035Z,16.41
2022-09-24T10:58:47.498Z,16.60
2022-09-24T11:01:22.018Z,16.48
2022-09-24T11:04:21.110Z,16.41
2022-09-24T11:07:15.720Z,16.59
2022-09-24T11:09:53.026Z,16.58
2022-09-24T11:12:31.513Z,16.53
2022-09-24T11:15:20.343Z,16.49
2022-09-24T11:18:07.270Z,16.35
2022-09-24T11:20:40.197Z,16.39
2022-09-24T11:23:36.123Z,16.31
2022-09-24T11:26:18.614Z,16.21
2022-09-24T11:29:09.214Z,16.26
2022-09-24T11:31:45.212Z,16.40
2022-09-24T11:34:29.927Z,16.44
2022-09-24T11:37:12.912Z,16.48
2022-09-24T11:40:00.181Z,16.66
2022-09-24T11:42:36.203Z,16.64
2022-09-24T11:45:31.349Z,16.74
2022-09-24T11:48:24.210Z,16.72
2022-09-24T11:51:03.995Z,16.58
2022-09-24T11:53:42.113Z,16.54
2022-09-24T11:56:18.900Z,16.64
2022-09-24T11:58:52.772Z,16.51
2022-09-24T12:01:26.518Z,16.50
2022-09-24T12:04:04.269Z,16.34
2022-09-24T12:06:39.495Z,16.22
2022-09-24T12:09:17.236Z,16.05
2022-09-24T12:11:53.185Z,15.90
2022-09-24T12:14:26.872Z,15.70
2022-09-24T12:17:01.916Z,15.69
2022-09-24T12:19:40.861Z,15.55
2022-09-24T12:22:13.504Z,15.51
2022-09-24T12:24:49.101Z,15.53
2022-09-24T12:27:22.207Z,15.62
2022-09-24T12:30:11.195Z,15.62
2022-09-24T12:32:57.761Z,15.57
2022-09-24T12:36:00.687Z,15.56
2022-09-24T12:38:36.718Z,15.56
2022-09-24T12:41:27.309Z,15.44
2022-09-24T12:44:02.908Z,15.49
2022-09-24T12:46:38.186Z,15.31
2022-09-24T12:49:18.464Z,15.22
2022-09-24T12:51:51.318Z,15.15
2022-09-24T12:54:28.682Z,15.09
2022-09-24T12:57:10.313Z,15.10
2022-09-24T12:59:51.612Z,15.05
2022-09-24T13:02:24.307Z,15.04
2022-09-24T13:05:16.192Z,15.02
2022-09-24T13:07:59.603Z,15.03
2022-09-24T13:10:32.028Z,15.15
2022-09-24T13:13:04.469Z,15.14
2022-09-24T13:15:37.364Z,15.17
2022-09-24T13:18:24.390Z,15.13
2022-09-24T13:21:03.687Z,15.12
2022-09-24T13:23:47.740Z,15.22
2022-09-24T13:26:33.841Z,15.29
2022-09-24T13:29:05.875Z,15.25
2022-09-24T13:31:47.953Z,15.26
2022-09-24T13:34:23.065Z,15.28
2022-09-24T13:37:00.949Z,15.23
2022-09-24T13:39:38.346Z,15.24
2022-09-24T13:42:17.433Z,15.20
2022-09-24T13:44:50.259Z,15.07
2022-09-24T13:47:30.314Z,15.05
2022-09-24T13:50:10.568Z,15.10
2022-09-24T13:52:45.107Z,15.11
2022-09-24T13:55:23.407Z,15.11
2022-09-24T13:57:53.379Z,15.15
2022-09-24T14:00:27.740Z,15.26
2022-09-24T14:03:01.261Z,15.44
2022-09-24T14:05:31.869Z,15.34
2022-09-24T14:08:06.575Z,15.35
2022-09-24T14:10:40.197Z,15.29
2022-09-24T14:13:21.772Z,15.37
2022-09-24T14:15:59.682Z,15.37
2022-09-24T14:18:31.027Z,15.29
2022-09-24T14:21:07.601Z,15.21
2022-09-24T14:23:42.642Z,15.27
2022-09-24T14:26:25.612Z,15.32
2022-09-24T14:28:56.236Z,15.32
2022-09-24T14:31:26.515Z,15.42
2022-09-24T14:33:56.468Z,15.36
2022-09-24T14:36:29.416Z,15.22
2022-09-24T14:39:05.692Z,15.28
2022-09-24T14:41:39.673Z,15.26
2022-09-24T14:44:16.483Z,15.31
2022-09-24T14:46:52.947Z,15.38
2022-09-24T14:49:26.473Z,15.41
2022-09-24T14:51:58.707Z,15.32
2022-09-24T14:54:35.766Z,15.30
2022-09-24T14:57:27.198Z,15.28
2022-09-24T14:59:56.968Z,15.31
2022-09-24T15:02:32.961Z,15.31
2022-09-24T15:05:06.686Z,15.34
2022-09-24T15:07:38.279Z,15.24
2022-09-24T15:10:09.319Z,15.15
2022-09-24T15:12:45.243Z,15.13
2022-09-24T15:15:32.209Z,15.16
2022-09-24T15:18:01.937Z,15.15
2022-09-24T15:20:31.725Z,15.14
2022-09-24T15:23:02.037Z,15.11
2022-09-24T15:25:32.508Z,15.21
2022-09-24T15:28:05.692Z,15.18
2022-09-24T15:30:35.956Z,15.16
2022-09-24T15:33:11.014Z,15.17
2022-09-24T15:35:40.858Z,15.15
2022-09-24T15:38:17.357Z,15.10
2022-09-24T15:40:47.407Z,15.14
2022-09-24T15:43:23.805Z,15.17
2022-09-24T15:45:54.933Z,15.12
2022-09-24T15:48:24.839Z,15.07
2022-09-24T15:50:54.564Z,14.98
2022-09-24T15:53:27.472Z,15.03
2022-09-24T15:55:59.249Z,15.10
2022-09-24T15:58:31.927Z,15.13
2022-09-24T16:01:01.634Z,15.10
2022-09-24T16:03:33.523Z,15.22
2022-09-24T16:06:03.550Z,15.18
2022-09-24T16:08:33.314Z,15.20
2022-09-24T16:11:06.873Z,15.20
2022-09-24T16:13:41.144Z,15.27
2022-09-24T16:16:11.772Z,15.35
2022-09-24T16:18:41.553Z,15.29
2022-09-24T16:21:12.400Z,15.21
2022-09-24T16:23:42.171Z,15.15
2022-09-24T16:26:12.293Z,15.08
2022-09-24T16:28:44.626Z,15.05
2022-09-24T16:31:14.541Z,14.98
2022-09-24T16:33:44.328Z,14.95
2022-09-24T16:36:15.184Z,14.89
2022-09-24T16:38:45.100Z,14.94
2022-09-24T16:41:14.883Z,15.02
2022-09-24T16:43:47.274Z,14.98
2022-09-24T16:46:20.640Z,14.94
2022-09-24T16:48:52.601Z,14.85
2022-09-24T16:51:22.656Z,14.80
2022-09-24T16:53:56.948Z,14.85
2022-09-24T16:56:27.066Z,14.86
2022-09-24T16:58:59.570Z,14.62
2022-09-24T17:01:29.509Z,14.63
2022-09-24T17:04:01.082Z,14.54
2022-09-24T17:06:34.196Z,14.50
2022-09-24T17:09:16.698Z,14.48
2022-09-24T17:11:48.601Z,14.45
2022-09-24T17:14:21.283Z,14.47
2022-09-24T17:16:51.015Z,14.42
2022-09-24T17:19:20.721Z,14.45
2022-09-24T17:21:50.615Z,14.36
2022-09-24T17:24:21.956Z,14.38
2022-09-24T17:26:52.116Z,14.36
2022-09-24T17:29:30.429Z,14.44
2022-09-24T17:32:01.288Z,14.42
2022-09-24T17:34:31.030Z,14.39
2022-09-24T17:37:00.823Z,14.36
2022-09-24T17:39:31.004Z,14.41
2022-09-24T17:42:00.991Z,14.45
2022-09-24T17:44:33.422Z,14.44
2022-09-24T17:47:03.692Z,14.39
2022-09-24T17:49:34.052Z,14.44
2022-09-24T17:52:04.570Z,14.46
2022-09-24T17:54:34.316Z,14.41
2022-09-24T17:57:04.066Z,14.43
2022-09-24T17:59:36.383Z,14.44
2022-09-24T18:02:06.933Z,14.45
2022-09-24T18:04:38.529Z,14.42
2022-09-24T18:07:08.329Z,14.37
2022-09-24T18:09:37.985Z,14.39
2022-09-24T18:12:08.054Z,14.36
2022-09-24T18:14:40.613Z,14.36
2022-09-24T18:17:10.648Z,14.36
2022-09-24T18:19:40.363Z,14.42
2022-09-24T18:22:11.464Z,14.33
2022-09-24T18:24:44.734Z,14.24
2022-09-24T18:27:16.183Z,14.21
2022-09-24T18:29:48.533Z,14.18
2022-09-24T18:32:19.489Z,14.19
2022-09-24T18:34:49.161Z,14.31
2022-09-24T18:37:18.856Z,14.33
2022-09-24T18:39:48.561Z,14.29
2022-09-24T18:42:18.231Z,14.33
2022-09-24T18:44:50.937Z,14.32
2022-09-24T18:47:20.898Z,14.24
2022-09-24T18:49:50.615Z,14.30
2022-09-24T18:52:20.368Z,14.25
2022-09-24T18:54:50.630Z,14.22
2022-09-24T18:57:20.543Z,14.25
2022-09-24T18:59:52.989Z,14.29
2022-09-24T19:02:25.349Z,14.24
2022-09-24T19:04:55.227Z,14.21
2022-09-24T19:07:25.049Z,14.15
2022-09-24T19:09:54.689Z,14.08
2022-09-24T19:12:26.214Z,13.90
2022-09-24T19:15:00.519Z,13.94
2022-09-24T19:17:30.226Z,13.98
2022-09-24T19:19:59.925Z,13.95
2022-09-24T19:22:29.735Z,14.06
2022-09-24T19:24:59.397Z,14.09
2022-09-24T19:27:29.262Z,14.17
2022-09-24T19:30:01.662Z,14.15
2022-09-24T19:32:32.058Z,13.96
2022-09-24T19:35:01.736Z,13.94
2022-09-24T19:37:31.394Z,13.90
2022-09-24T19:40:01.268Z,13.94
2022-09-24T19:42:30.877Z,14.03
2022-09-24T19:45:05.939Z,14.01
2022-09-24T19:47:36.008Z,13.94
2022-09-24T19:50:06.044Z,13.94
2022-09-24T19:52:35.712Z,13.96
2022-09-24T19:55:05.475Z,13.94
2022-09-24T19:57:36.294Z,13.96
2022-09-24T20:00:10.076Z,13.98
2022-09-24T20:02:39.920Z,13.94
2022-09-24T20:05:10.647Z,13.87
2022-09-24T20:07:42.088Z,13.92
2022-09-24T20:10:13.040Z,13.82
2022-09-24T20:12:46.726Z,13.85
2022-09-24T20:15:19.273Z,13.83
2022-09-24T20:17:48.988Z,13.76
2022-09-24T20:20:19.025Z,13.79
2022-09-24T20:22:48.686Z,13.91
2022-09-24T20:25:18.419Z,13.75
2022-09-24T20:27:51.774Z,13.72
2022-09-24T20:30:24.354Z,13.70
2022-09-24T20:32:54.133Z,13.74
2022-09-24T20:35:23.778Z,13.80
2022-09-24T20:37:53.423Z,13.77
2022-09-24T20:40:23.155Z,13.63
2022-09-24T20:42:52.857Z,13.62
2022-09-24T20:45:25.175Z,13.54
2022-09-24T20:47:54.852Z,13.66
2022-09-24T20:50:24.593Z,13.75
2022-09-24T20:52:54.348Z,13.64
2022-09-24T20:55:25.096Z,13.52
2022-09-24T20:57:55.145Z,13.60
2022-09-24T21:00:34.099Z,13.44
2022-09-24T21:03:19.924Z,13.58
2022-09-24T21:05:54.257Z,13.65
2022-09-24T21:08:24.112Z,13.68
2022-09-24T21:11:03.259Z,13.74
2022-09-24T21:13:34.089Z,13.89
2022-09-24T21:16:06.879Z,13.78
2022-09-24T21:18:40.422Z,13.75
2022-09-24T21:21:16.265Z,13.76
2022-09-24T21:23:47.144Z,13.74
2022-09-24T21:26:19.022Z,13.67
2022-09-24T21:28:49.856Z,13.69
2022-09-24T21:31:23.853Z,13.69
2022-09-24T21:33:55.636Z,13.70
2022-09-24T21:36:28.814Z,13.67
2022-09-24T21:39:00.288Z,13.70
2022-09-24T21:41:31.952Z,13.70
2022-09-24T21:44:02.357Z,13.66
2022-09-24T21:46:35.796Z,13.71
2022-09-24T21:49:05.913Z,13.70
2022-09-24T21:51:35.582Z,13.61
2022-09-24T21:54:07.028Z,13.58
2022-09-24T21:56:38.118Z,13.60
2022-09-24T21:59:29.153Z,13.55
2022-09-24T22:02:01.755Z,13.62
2022-09-24T22:04:33.483Z,13.69
2022-09-24T22:07:03.386Z,13.69
2022-09-24T22:09:33.845Z,13.71
2022-09-24T22:12:04.978Z,13.77
2022-09-24T22:14:35.473Z,13.67
2022-09-24T22:17:07.823Z,13.62
2022-09-24T22:19:37.762Z,13.67
2022-09-24T22:22:07.499Z,13.72
2022-09-24T22:24:37.184Z,13.74
2022-09-24T22:27:07.442Z,13.65
2022-09-24T22:29:37.141Z,13.64
2022-09-24T22:32:09.801Z,13.53
2022-09-24T22:34:51.901Z,13.51
2022-09-24T22:37:22.949Z,13.61
2022-09-24T22:39:52.586Z,13.56
2022-09-24T22:42:22.271Z,13.41
2022-09-24T22:44:52.005Z,13.53
2022-09-24T22:47:24.359Z,13.55
2022-09-24T22:49:54.221Z,13.50
2022-09-24T22:52:24.069Z,13.57
2022-09-24T22:54:53.813Z,13.50
2022-09-24T22:57:23.503Z,13.49
2022-09-24T22:59:53.312Z,13.44
2022-09-24T23:02:25.586Z,13.29
2022-09-24T23:04:55.413Z,13.39
2022-09-24T23:07:25.712Z,13.40
2022-09-24T23:09:55.450Z,13.37
2022-09-24T23:12:25.197Z,13.22
2022-09-24T23:14:55.799Z,13.26
2022-09-24T23:17:28.355Z,13.26
2022-09-24T23:19:58.113Z,13.32
2022-09-24T23:22:27.789Z,13.38
2022-09-24T23:24:57.812Z,13.44
2022-09-24T23:27:27.514Z,13.44
2022-09-24T23:29:57.303Z,13.48
2022-09-24T23:32:32.026Z,13.43
2022-09-24T23:35:02.055Z,13.38
2022-09-24T23:37:31.895Z,13.38
2022-09-24T23:40:01.642Z,13.31
2022-09-24T23:42:31.515Z,13.41
2022-09-24T23:45:01.210Z,13.45
2022-09-24T23:47:36.157Z,13.34
2022-09-24T23:50:06.429Z,13.36
2022-09-24T23:52:36.177Z,13.53
2022-09-24T23:55:05.859Z,13.49
2022-09-24T23:57:35.595Z,13.45
